HISTORICAL SENSOR DATA

Sensor Data Report

DB LIVE
CURRENT TIME--:--:--
DEVICE NETWORK Gateway Status
13 ESP · realtime ~1s · history 60s
Weather WS-MOD-01
ONLINE
Actuator ACT-MOD-01
OFFLINE
Mainboard L3 MB-L3-01
ONLINE
Mainboard L5 MB-L5-01
ONLINE
Remote AC AC-REMOTE-01
ONLINE
PZEM L3-01 PWR-L3-01
OFFLINE
PZEM L3-02 PWR-L3-02
OFFLINE
PZEM L3-03 PWR-L3-03
OFFLINE
PZEM L3-04 PWR-L3-04
OFFLINE
PZEM L5-01 PWR-L5-01
ONLINE
PZEM L5-02 PWR-L5-02
ONLINE
PZEM L5-03 PWR-L5-03
OFFLINE
PZEM L5-04 PWR-L5-04
OFFLINE
REPORT FILTER

Periode & Sensor

DATABASE HISTORY
RESET
QUICK RANGE Hari ini 7 hari 30 hari
PERIODE31 Aug 2026sampai 06 Sep 2026
TOTAL DATA52,426sensor readings
MINIMUM-0.50sesuai filter
AVERAGE97.19sesuai filter
MAXIMUM32,564.20sesuai filter
REPORT RESULT

Data Sensor

31/08/2026 — 06/09/2026 EXPORT CSV
NOTANGGALWAKTUDEVICECHANNELSENSORVALUEUNIT
2601 06/09/2026 19:03:00 MB-L3-01Mainboard Lantai 3 L3-SHT-02-T SHT20 2 Temperature 29.50 °C
2602 06/09/2026 19:03:00 MB-L3-01Mainboard Lantai 3 L3-AI-01 Analog Input 1 3.12 V
2603 06/09/2026 19:03:00 PWR-L5-01Power Meter L5 PZEM 01 PZEM-L5-01-PF PZEM L5-01 Power Factor 0.41
2604 06/09/2026 19:03:00 MB-L3-01Mainboard Lantai 3 L3-LUX-01 Illuminance / LUX 1 503.10 lux
2605 06/09/2026 19:03:00 MB-L5-01Mainboard Lantai 5 L5-LUX-03 Illuminance / LUX 3 396.80 lux
2606 06/09/2026 19:03:00 WS-MOD-01Weather Station Module WS-TEMP Suhu Udara 22.00 °C
2607 06/09/2026 19:03:00 MB-L5-01Mainboard Lantai 5 L5-SHT-03-T SHT20 3 Temperature 29.40 °C
2608 06/09/2026 19:03:00 MB-L3-01Mainboard Lantai 3 L3-LUX-06 Illuminance / LUX 6 539.40 lux
2609 06/09/2026 19:03:00 PWR-L5-01Power Meter L5 PZEM 01 PZEM-L5-01-FREQ PZEM L5-01 Frequency 50.00 Hz
2610 06/09/2026 19:03:00 MB-L3-01Mainboard Lantai 3 L3-SHT-01-T SHT20 1 Temperature 29.40 °C
2611 06/09/2026 19:03:00 MB-L3-01Mainboard Lantai 3 L3-SHT-02-RH SHT20 2 Humidity 43.40 %RH
2612 06/09/2026 19:03:00 MB-L3-01Mainboard Lantai 3 L3-LUX-02 Illuminance / LUX 2 615.80 lux
2613 06/09/2026 19:03:00 WS-MOD-01Weather Station Module WS-DIR Arah Angin 147.30 °
2614 06/09/2026 19:03:00 MB-L3-01Mainboard Lantai 3 L3-AI-05 Analog Input 5 3.12 V
2615 06/09/2026 19:03:00 MB-L5-01Mainboard Lantai 5 L5-LUX-01 Illuminance / LUX 1 283.10 lux
2616 06/09/2026 19:03:00 MB-L3-01Mainboard Lantai 3 L3-AI-02 Analog Input 2 3.12 V
2617 06/09/2026 19:03:00 PWR-L5-01Power Meter L5 PZEM 01 PZEM-L5-01-ENERGY PZEM L5-01 Energy 0.02 kWh
2618 06/09/2026 19:03:00 MB-L3-01Mainboard Lantai 3 L3-RAD-02 Radiation 2 1.00 W/m²
2619 06/09/2026 19:03:00 MB-L3-01Mainboard Lantai 3 L3-LUX-04 Illuminance / LUX 4 585.10 lux
2620 06/09/2026 19:03:00 MB-L5-01Mainboard Lantai 5 L5-RAD-02 Radiation 2 1.00 W/m²
2621 06/09/2026 19:03:00 MB-L5-01Mainboard Lantai 5 L5-SHT-01-T SHT20 1 Temperature 29.30 °C
2622 06/09/2026 19:03:00 MB-L5-01Mainboard Lantai 5 L5-BGT-01 Black Globe Temperature 1 27.80 °C
2623 06/09/2026 19:03:00 MB-L5-01Mainboard Lantai 5 L5-ST-02 Surface Temperature 2 25.80 °C
2624 06/09/2026 19:03:00 MB-L5-01Mainboard Lantai 5 L5-ST-01 Surface Temperature 1 26.20 °C
2625 06/09/2026 19:03:00 MB-L5-01Mainboard Lantai 5 L5-BGT-02 Black Globe Temperature 2 27.40 °C
2626 06/09/2026 19:03:00 PWR-L5-01Power Meter L5 PZEM 01 PZEM-L5-01-POWER PZEM L5-01 Active Power 10.50 W
2627 06/09/2026 19:03:00 MB-L5-01Mainboard Lantai 5 L5-SHT-02-RH SHT20 2 Humidity 44.40 %RH
2628 06/09/2026 19:03:00 MB-L5-01Mainboard Lantai 5 L5-HFT-01 Heat Flow Temperature 1 25.90 °C
2629 06/09/2026 19:03:00 WS-MOD-01Weather Station Module WS-RH Kelembapan Udara 70.00 %RH
2630 06/09/2026 19:03:00 MB-L5-01Mainboard Lantai 5 L5-BGT-03 Black Globe Temperature 3 27.50 °C
2631 06/09/2026 19:02:00 MB-L5-01Mainboard Lantai 5 L5-RAD-01 Radiation 1 1.00 W/m²
2632 06/09/2026 19:02:00 MB-L5-01Mainboard Lantai 5 L5-SHT-03-RH SHT20 3 Humidity 44.30 %RH
2633 06/09/2026 19:02:00 MB-L5-01Mainboard Lantai 5 L5-AI-05 Analog Input 5 3.05 V
2634 06/09/2026 19:02:00 PWR-L5-01Power Meter L5 PZEM 01 PZEM-L5-01-VOLT PZEM L5-01 Voltage 222.20 V
2635 06/09/2026 19:02:00 MB-L3-01Mainboard Lantai 3 L3-SHT-01-RH SHT20 1 Humidity 44.00 %RH
2636 06/09/2026 19:02:00 MB-L5-01Mainboard Lantai 5 L5-AI-06 Analog Input 6 3.05 V
2637 06/09/2026 19:02:00 MB-L5-01Mainboard Lantai 5 L5-SHT-01-RH SHT20 1 Humidity 44.30 %RH
2638 06/09/2026 19:02:00 WS-MOD-01Weather Station Module WS-PRES Tekanan Udara 911.00 hPa
2639 06/09/2026 19:02:00 MB-L3-01Mainboard Lantai 3 L3-AI-04 Analog Input 4 3.12 V
2640 06/09/2026 19:02:00 MB-L5-01Mainboard Lantai 5 L5-LUX-06 Illuminance / LUX 6 275.10 lux
2641 06/09/2026 19:02:00 MB-L3-01Mainboard Lantai 3 L3-RAD-01 Radiation 1 1.00 W/m²
2642 06/09/2026 19:02:00 MB-L3-01Mainboard Lantai 3 L3-LUX-03 Illuminance / LUX 3 733.60 lux
2643 06/09/2026 19:02:00 MB-L3-01Mainboard Lantai 3 L3-SHT-03-RH SHT20 3 Humidity 43.60 %RH
2644 06/09/2026 19:02:00 MB-L3-01Mainboard Lantai 3 L3-SHT-02-T SHT20 2 Temperature 29.60 °C
2645 06/09/2026 19:02:00 MB-L3-01Mainboard Lantai 3 L3-AI-01 Analog Input 1 3.12 V
2646 06/09/2026 19:02:00 PWR-L5-01Power Meter L5 PZEM 01 PZEM-L5-01-PF PZEM L5-01 Power Factor 0.40
2647 06/09/2026 19:02:00 MB-L3-01Mainboard Lantai 3 L3-LUX-01 Illuminance / LUX 1 503.10 lux
2648 06/09/2026 19:02:00 MB-L5-01Mainboard Lantai 5 L5-LUX-03 Illuminance / LUX 3 396.40 lux
2649 06/09/2026 19:02:00 WS-MOD-01Weather Station Module WS-TEMP Suhu Udara 21.90 °C
2650 06/09/2026 19:02:00 MB-L5-01Mainboard Lantai 5 L5-SHT-03-T SHT20 3 Temperature 29.50 °C
2651 06/09/2026 19:02:00 MB-L3-01Mainboard Lantai 3 L3-LUX-06 Illuminance / LUX 6 541.00 lux
2652 06/09/2026 19:02:00 PWR-L5-01Power Meter L5 PZEM 01 PZEM-L5-01-FREQ PZEM L5-01 Frequency 50.00 Hz
2653 06/09/2026 19:02:00 MB-L3-01Mainboard Lantai 3 L3-SHT-01-T SHT20 1 Temperature 29.30 °C
2654 06/09/2026 19:02:00 MB-L3-01Mainboard Lantai 3 L3-SHT-02-RH SHT20 2 Humidity 43.40 %RH
2655 06/09/2026 19:02:00 MB-L3-01Mainboard Lantai 3 L3-LUX-02 Illuminance / LUX 2 615.60 lux
2656 06/09/2026 19:02:00 WS-MOD-01Weather Station Module WS-DIR Arah Angin 333.10 °
2657 06/09/2026 19:02:00 MB-L3-01Mainboard Lantai 3 L3-AI-05 Analog Input 5 3.12 V
2658 06/09/2026 19:02:00 MB-L5-01Mainboard Lantai 5 L5-LUX-01 Illuminance / LUX 1 280.80 lux
2659 06/09/2026 19:02:00 MB-L3-01Mainboard Lantai 3 L3-AI-02 Analog Input 2 3.12 V
2660 06/09/2026 19:02:00 PWR-L5-01Power Meter L5 PZEM 01 PZEM-L5-01-ENERGY PZEM L5-01 Energy 0.02 kWh
2661 06/09/2026 19:02:00 MB-L3-01Mainboard Lantai 3 L3-RAD-02 Radiation 2 1.00 W/m²
2662 06/09/2026 19:02:00 MB-L3-01Mainboard Lantai 3 L3-LUX-04 Illuminance / LUX 4 585.30 lux
2663 06/09/2026 19:02:00 MB-L5-01Mainboard Lantai 5 L5-RAD-02 Radiation 2 1.00 W/m²
2664 06/09/2026 19:02:00 MB-L5-01Mainboard Lantai 5 L5-SHT-01-T SHT20 1 Temperature 29.40 °C
2665 06/09/2026 19:02:00 MB-L5-01Mainboard Lantai 5 L5-BGT-01 Black Globe Temperature 1 27.60 °C
2666 06/09/2026 19:02:00 MB-L5-01Mainboard Lantai 5 L5-ST-02 Surface Temperature 2 25.70 °C
2667 06/09/2026 19:02:00 MB-L5-01Mainboard Lantai 5 L5-ST-01 Surface Temperature 1 26.20 °C
2668 06/09/2026 19:02:00 MB-L5-01Mainboard Lantai 5 L5-BGT-02 Black Globe Temperature 2 27.40 °C
2669 06/09/2026 19:02:00 PWR-L5-01Power Meter L5 PZEM 01 PZEM-L5-01-POWER PZEM L5-01 Active Power 10.60 W
2670 06/09/2026 19:02:00 MB-L5-01Mainboard Lantai 5 L5-SHT-02-RH SHT20 2 Humidity 44.40 %RH
2671 06/09/2026 19:02:00 MB-L5-01Mainboard Lantai 5 L5-HFT-01 Heat Flow Temperature 1 25.90 °C
2672 06/09/2026 19:02:00 WS-MOD-01Weather Station Module WS-RH Kelembapan Udara 70.10 %RH
2673 06/09/2026 19:02:00 MB-L5-01Mainboard Lantai 5 L5-BGT-03 Black Globe Temperature 3 27.40 °C
2674 06/09/2026 19:02:00 MB-L5-01Mainboard Lantai 5 L5-AI-01 Analog Input 1 3.05 V
2675 06/09/2026 19:02:00 MB-L3-01Mainboard Lantai 3 L3-LUX-05 Illuminance / LUX 5 390.30 lux
2676 06/09/2026 19:02:00 MB-L5-01Mainboard Lantai 5 L5-HFT-02 Heat Flow Temperature 2 25.40 °C
2677 06/09/2026 19:02:00 MB-L3-01Mainboard Lantai 3 L3-AI-06 Analog Input 6 3.12 V
2678 06/09/2026 19:02:00 MB-L3-01Mainboard Lantai 3 L3-SHT-03-T SHT20 3 Temperature 29.60 °C
2679 06/09/2026 19:02:00 MB-L5-01Mainboard Lantai 5 L5-AI-02 Analog Input 2 3.05 V
2680 06/09/2026 19:02:00 MB-L3-01Mainboard Lantai 3 L3-AI-03 Analog Input 3 3.12 V
2681 06/09/2026 19:02:00 PWR-L5-01Power Meter L5 PZEM 01 PZEM-L5-01-CURR PZEM L5-01 Current 0.12 A
2682 06/09/2026 19:02:00 MB-L5-01Mainboard Lantai 5 L5-LUX-02 Illuminance / LUX 2 174.00 lux
2683 06/09/2026 19:02:00 MB-L5-01Mainboard Lantai 5 L5-AI-03 Analog Input 3 3.05 V
2684 06/09/2026 19:02:00 MB-L5-01Mainboard Lantai 5 L5-SHT-02-T SHT20 2 Temperature 29.30 °C
2685 06/09/2026 19:02:00 WS-MOD-01Weather Station Module WS-WIND Kecepatan Angin 1.39 m/s
2686 06/09/2026 19:02:00 MB-L5-01Mainboard Lantai 5 L5-LUX-04 Illuminance / LUX 4 262.00 lux
2687 06/09/2026 19:02:00 MB-L5-01Mainboard Lantai 5 L5-AI-04 Analog Input 4 3.05 V
2688 06/09/2026 19:01:00 MB-L5-01Mainboard Lantai 5 L5-LUX-06 Illuminance / LUX 6 274.90 lux
2689 06/09/2026 19:01:00 MB-L3-01Mainboard Lantai 3 L3-RAD-01 Radiation 1 1.00 W/m²
2690 06/09/2026 19:01:00 MB-L3-01Mainboard Lantai 3 L3-LUX-03 Illuminance / LUX 3 733.90 lux
2691 06/09/2026 19:01:00 MB-L3-01Mainboard Lantai 3 L3-SHT-03-RH SHT20 3 Humidity 43.60 %RH
2692 06/09/2026 19:01:00 MB-L3-01Mainboard Lantai 3 L3-SHT-02-T SHT20 2 Temperature 29.60 °C
2693 06/09/2026 19:01:00 MB-L3-01Mainboard Lantai 3 L3-AI-01 Analog Input 1 3.12 V
2694 06/09/2026 19:01:00 PWR-L5-01Power Meter L5 PZEM 01 PZEM-L5-01-PF PZEM L5-01 Power Factor 0.40
2695 06/09/2026 19:01:00 MB-L3-01Mainboard Lantai 3 L3-LUX-01 Illuminance / LUX 1 503.10 lux
2696 06/09/2026 19:01:00 MB-L5-01Mainboard Lantai 5 L5-LUX-03 Illuminance / LUX 3 396.80 lux
2697 06/09/2026 19:01:00 WS-MOD-01Weather Station Module WS-TEMP Suhu Udara 21.90 °C
2698 06/09/2026 19:01:00 MB-L5-01Mainboard Lantai 5 L5-SHT-03-T SHT20 3 Temperature 29.40 °C
2699 06/09/2026 19:01:00 MB-L3-01Mainboard Lantai 3 L3-LUX-06 Illuminance / LUX 6 540.50 lux
2700 06/09/2026 19:01:00 PWR-L5-01Power Meter L5 PZEM 01 PZEM-L5-01-FREQ PZEM L5-01 Frequency 50.00 Hz
Menampilkan maksimal 100 data per halaman